Time;durP1;ratioP1;P1;durP2;ratioP2;P2;SDS_P1;SDS_P2;PMS_P1;PMS_P2;Temp;Humidity;BMP_temperature;BMP_pressure;BME280_temperature;BME280_humidity;BME280_pressure;Samples;Min_cycle;Max_cycle;Signal;HPM_P1;HPM_P2
2021/11/28 00:01:49;;;;;;;0.00;0.00;;;;;19.90;99896.00;;;;5090068;28;20047;-74
2021/11/28 00:04:21;;;;;;;0.00;0.00;;;;;19.80;99905.00;;;;5090057;28;20067;-74
2021/11/28 00:09:58;;;;;;;0.15;0.15;;;;;19.70;99921.00;;;;5052816;28;20130;-74
2021/11/28 00:15:10;;;;;;;0.00;0.00;;;;;19.80;99932.00;;;;5089589;28;20118;-75
2021/11/28 00:17:40;;;;;;;0.00;0.00;;;;;19.80;99923.00;;;;5071927;28;20048;-75
2021/11/28 00:20:14;;;;;;;0.00;0.00;;;;;19.80;99932.00;;;;5090316;28;20113;-75
2021/11/28 00:22:46;;;;;;;0.20;0.20;;;;;19.80;99932.00;;;;5089602;28;20040;-75
2021/11/28 00:25:19;;;;;;;0.00;0.00;;;;;19.80;99921.00;;;;5089553;28;20051;-75
2021/11/28 00:27:50;;;;;;;0.00;0.00;;;;;19.80;99935.00;;;;5089243;28;20052;-75
2021/11/28 00:30:24;;;;;;;0.00;0.00;;;;;19.80;99921.00;;;;5091847;28;20044;-75
2021/11/28 00:32:54;;;;;;;0.00;0.00;;;;;19.70;99922.00;;;;5109507;28;20053;-75
2021/11/28 00:35:25;;;;;;;0.00;0.00;;;;;19.70;99932.00;;;;5108936;28;20039;-75
2021/11/28 00:37:55;;;;;;;0.00;0.00;;;;;19.70;99934.00;;;;5109186;28;20048;-75
2021/11/28 00:40:26;;;;;;;0.38;0.22;;;;;19.70;99919.00;;;;5109768;28;20039;-75
2021/11/28 00:42:56;;;;;;;0.00;0.00;;;;;19.70;99943.00;;;;5109824;28;20047;-75
2021/11/28 00:45:27;;;;;;;0.00;0.00;;;;;19.70;99932.00;;;;5109681;28;20052;-75
2021/11/28 00:47:56;;;;;;;0.00;0.00;;;;;19.70;99939.00;;;;5075186;28;20048;-74
2021/11/28 00:50:37;;;;;;;0.00;0.00;;;;;19.60;99919.00;;;;5109067;28;20109;-75
2021/11/28 00:53:07;;;;;;;0.00;0.00;;;;;19.50;99931.00;;;;5090885;28;20217;-75
2021/11/28 00:55:38;;;;;;;0.00;0.00;;;;;19.40;99929.00;;;;5108410;28;20088;-74
2021/11/28 00:58:07;;;;;;;0.00;0.00;;;;;19.30;99917.00;;;;5109016;28;20054;-75
2021/11/28 01:00:38;;;;;;;0.00;0.00;;;;;19.20;99933.00;;;;5090624;28;20104;-75
2021/11/28 01:03:10;;;;;;;0.00;0.00;;;;;19.20;99914.00;;;;5091352;28;20071;-75
2021/11/28 01:05:40;;;;;;;0.00;0.00;;;;;19.10;99937.00;;;;5090955;28;20070;-75
2021/11/28 01:08:10;;;;;;;0.00;0.00;;;;;19.00;99927.00;;;;5108807;28;20096;-75
2021/11/28 01:10:39;;;;;;;0.00;0.00;;;;;19.00;99933.00;;;;5089561;28;20055;-75
2021/11/28 01:13:08;;;;;;;0.00;0.00;;;;;18.90;99918.00;;;;5107650;28;20043;-73
2021/11/28 01:15:38;;;;;;;0.00;0.00;;;;;18.90;99924.00;;;;5090466;28;20575;-74
2021/11/28 01:18:07;;;;;;;0.00;0.00;;;;;18.90;99940.00;;;;5107027;28;20043;-74
2021/11/28 01:20:37;;;;;;;0.00;0.00;;;;;18.90;99929.00;;;;5107196;28;20056;-74
2021/11/28 01:23:06;;;;;;;0.03;0.00;;;;;18.90;99934.00;;;;5106821;28;20078;-75
2021/11/28 01:25:35;;;;;;;0.00;0.00;;;;;18.90;99929.00;;;;5105679;28;20055;-75
2021/11/28 01:28:05;;;;;;;0.00;0.00;;;;;18.80;99937.00;;;;5108808;28;20046;-74
2021/11/28 01:30:35;;;;;;;0.00;0.00;;;;;18.80;99924.00;;;;5090748;28;20051;-75
2021/11/28 01:33:04;;;;;;;0.00;0.00;;;;;18.80;99938.00;;;;5107369;28;20134;-75
2021/11/28 01:35:36;;;;;;;0.10;0.10;;;;;18.80;99930.00;;;;5087333;28;20048;-75
2021/11/28 01:38:06;;;;;;;0.00;0.00;;;;;18.90;99927.00;;;;5087349;28;20059;-75
2021/11/28 01:40:36;;;;;;;0.00;0.00;;;;;19.00;99928.00;;;;5106481;28;20445;-75
2021/11/28 01:43:12;;;;;;;3.20;0.68;;;;;19.00;99930.00;;;;5108797;28;20044;-74
2021/11/28 01:45:43;;;;;;;0.00;0.00;;;;;19.00;99931.00;;;;5090309;28;20058;-75
2021/11/28 01:48:14;;;;;;;;;;;;;19.10;99931.00;;;;5108922;28;20044;-74
2021/11/28 01:50:47;;;;;;;0.00;0.00;;;;;19.10;99916.00;;;;5089915;28;20314;-74
2021/11/28 01:53:28;;;;;;;0.00;0.00;;;;;19.20;99933.00;;;;5090200;28;20455;-74
2021/11/28 01:55:59;;;;;;;0.00;0.00;;;;;19.20;99930.00;;;;5090040;28;20054;-74
2021/11/28 01:58:34;;;;;;;0.00;0.00;;;;;19.30;99929.00;;;;5089899;28;20611;-74
2021/11/28 02:01:07;;;;;;;0.00;0.00;;;;;19.30;99921.00;;;;5089329;28;20514;-74
2021/11/28 02:03:41;;;;;;;0.00;0.00;;;;;19.40;99924.00;;;;5089592;28;20050;-74
2021/11/28 02:06:14;;;;;;;0.00;0.00;;;;;19.40;99940.00;;;;5089309;28;20078;-74
2021/11/28 02:08:45;;;;;;;0.00;0.00;;;;;19.50;99932.00;;;;5084528;28;20055;-74
2021/11/28 02:11:16;;;;;;;0.00;0.00;;;;;19.50;99917.00;;;;5084781;28;20142;-74
2021/11/28 02:13:46;;;;;;;0.00;0.00;;;;;19.50;99932.00;;;;5102627;28;20556;-74
2021/11/28 02:16:16;;;;;;;0.00;0.00;;;;;19.60;99923.00;;;;5086074;28;20109;-74
2021/11/28 02:18:45;;;;;;;0.00;0.00;;;;;19.60;99933.00;;;;5107545;28;20044;-74
2021/11/28 02:21:15;;;;;;;0.00;0.00;;;;;19.60;99917.00;;;;5087517;28;20056;-74
2021/11/28 02:23:44;;;;;;;0.00;0.00;;;;;19.60;99937.00;;;;5088249;28;20088;-74
2021/11/28 02:26:15;;;;;;;0.00;0.00;;;;;19.60;99926.00;;;;5088222;28;20047;-74
2021/11/28 02:28:47;;;;;;;0.00;0.00;;;;;19.70;99925.00;;;;5088823;28;20063;-75
2021/11/28 02:31:16;;;;;;;;;;;;;19.70;99944.00;;;;5089002;28;20422;-74
2021/11/28 02:33:47;;;;;;;0.00;0.00;;;;;19.80;99935.00;;;;5088642;28;20480;-75
2021/11/28 02:36:18;;;;;;;0.00;0.00;;;;;19.80;99946.00;;;;5105947;28;20039;-75
2021/11/28 02:38:48;;;;;;;0.00;0.00;;;;;19.80;99930.00;;;;5088174;28;20058;-74
2021/11/28 02:41:18;;;;;;;24.33;0.43;;;;;19.70;99942.00;;;;5089495;28;20043;-74
2021/11/28 02:43:52;;;;;;;0.00;0.00;;;;;19.70;99938.00;;;;5089241;28;20043;-75
2021/11/28 02:46:25;;;;;;;0.00;0.00;;;;;19.80;99931.00;;;;5087550;28;20043;-75
2021/11/28 02:48:55;;;;;;;0.00;0.00;;;;;19.80;99945.00;;;;5106667;28;20070;-75
2021/11/28 02:51:25;;;;;;;0.00;0.00;;;;;19.80;99926.00;;;;5086603;28;20052;-75
2021/11/28 02:53:55;;;;;;;0.00;0.00;;;;;19.90;99927.00;;;;5105709;28;20070;-75
2021/11/28 02:56:24;;;;;;;0.55;0.55;;;;;19.90;99931.00;;;;5070504;28;20055;-75
2021/11/28 02:58:54;;;;;;;0.00;0.00;;;;;20.00;99941.00;;;;5088363;28;20054;-75
2021/11/28 03:01:24;;;;;;;0.00;0.00;;;;;20.00;99919.00;;;;5087794;28;20057;-74
2021/11/28 03:04:17;;;;;;;0.00;0.00;;;;;20.00;99911.00;;;;5066436;28;20051;-75
2021/11/28 03:06:47;;;;;;;0.00;0.00;;;;;20.10;99919.00;;;;5105837;28;20050;-75
2021/11/28 03:09:16;;;;;;;0.00;0.00;;;;;20.10;99916.00;;;;5088126;28;20058;-74
2021/11/28 03:11:46;;;;;;;0.00;0.00;;;;;20.10;99932.00;;;;5085388;28;20441;-75
2021/11/28 03:14:16;;;;;;;0.00;0.00;;;;;20.00;99921.00;;;;5084799;28;20489;-75
2021/11/28 03:16:47;;;;;;;0.00;0.00;;;;;20.00;99911.00;;;;5086152;28;20055;-75
2021/11/28 03:19:16;;;;;;;0.00;0.00;;;;;19.90;99913.00;;;;5088126;28;20090;-74
2021/11/28 03:21:49;;;;;;;0.00;0.00;;;;;19.80;99895.00;;;;5085773;28;20058;-75
2021/11/28 03:24:18;;;;;;;0.00;0.00;;;;;19.80;99916.00;;;;5085137;28;20080;-75
2021/11/28 03:26:48;;;;;;;0.00;0.00;;;;;19.70;99906.00;;;;5103380;28;20046;-75
2021/11/28 03:29:20;;;;;;;0.00;0.00;;;;;19.60;99895.00;;;;5088558;28;20039;-75
2021/11/28 03:32:08;;;;;;;0.00;0.00;;;;;19.60;99884.00;;;;5106417;28;20048;-75
2021/11/28 03:34:38;;;;;;;0.00;0.00;;;;;19.50;99892.00;;;;5106185;28;20510;-75
2021/11/28 03:37:13;;;;;;;0.00;0.00;;;;;19.40;99890.00;;;;5086936;28;20117;-75
2021/11/28 03:39:43;;;;;;;0.00;0.00;;;;;19.30;99872.00;;;;5070766;28;20086;-75
2021/11/28 03:42:16;;;;;;;0.00;0.00;;;;;19.30;99887.00;;;;5086785;28;20110;-75
2021/11/28 03:44:49;;;;;;;0.00;0.00;;;;;19.20;99884.00;;;;5088210;28;20056;-75
2021/11/28 03:47:19;;;;;;;;;;;;;19.10;99872.00;;;;5087874;28;20109;-75
2021/11/28 03:50:05;;;;;;;0.00;0.00;;;;;19.00;99869.00;;;;5088323;28;20320;-75
2021/11/28 03:52:37;;;;;;;0.00;0.00;;;;;18.90;99859.00;;;;5088168;28;20047;-75
2021/11/28 03:55:09;;;;;;;0.00;0.00;;;;;18.90;99839.00;;;;5088872;28;20532;-74
2021/11/28 03:57:38;;;;;;;;;;;;;18.80;99844.00;;;;5087196;28;20054;-75
2021/11/28 04:00:12;;;;;;;0.00;0.00;;;;;18.70;99836.00;;;;5103870;28;19930;-75
2021/11/28 04:02:48;;;;;;;0.00;0.00;;;;;18.60;99842.00;;;;5103354;28;20142;-75
2021/11/28 04:05:26;;;;;;;0.00;0.00;;;;;18.50;99828.00;;;;5084742;28;20066;-75
2021/11/28 04:07:56;;;;;;;0.00;0.00;;;;;18.40;99839.00;;;;5103877;28;20410;-74
2021/11/28 04:10:26;;;;;;;0.00;0.00;;;;;18.40;99852.00;;;;5087017;28;20518;-75
2021/11/28 04:13:02;;;;;;;0.00;0.00;;;;;18.50;99837.00;;;;5085293;28;20048;-75
2021/11/28 04:15:33;;;;;;;0.00;0.00;;;;;18.40;99836.00;;;;5103896;28;20058;-75
2021/11/28 04:18:12;;;;;;;0.00;0.00;;;;;18.40;99855.00;;;;5084973;28;20055;-74
2021/11/28 04:20:42;;;;;;;0.00;0.00;;;;;18.40;99842.00;;;;5085058;28;20048;-75
2021/11/28 04:23:11;;;;;;;0.00;0.00;;;;;18.40;99831.00;;;;5084331;28;20055;-75
2021/11/28 04:25:43;;;;;;;0.00;0.00;;;;;18.30;99845.00;;;;5102971;28;20247;-74
2021/11/28 04:28:12;;;;;;;0.00;0.00;;;;;18.30;99833.00;;;;5084654;28;20051;-75
2021/11/28 04:30:42;;;;;;;0.00;0.00;;;;;18.30;99852.00;;;;5085664;28;20051;-75
2021/11/28 04:33:15;;;;;;;0.00;0.00;;;;;18.30;99830.00;;;;5106831;28;20048;-75
2021/11/28 04:35:47;;;;;;;0.00;0.00;;;;;18.20;99843.00;;;;5107060;28;20565;-75
2021/11/28 04:38:17;;;;;;;0.00;0.00;;;;;18.20;99828.00;;;;5088940;28;20055;-75
2021/11/28 04:40:46;;;;;;;0.00;0.00;;;;;18.20;99829.00;;;;5106704;28;20047;-75
2021/11/28 04:43:16;;;;;;;0.00;0.00;;;;;18.20;99834.00;;;;5088642;28;20051;-74
2021/11/28 04:45:46;;;;;;;0.00;0.00;;;;;18.20;99836.00;;;;5089212;28;20056;-75
2021/11/28 04:48:16;;;;;;;0.00;0.00;;;;;18.20;99842.00;;;;5106517;28;20043;-74
2021/11/28 04:50:49;;;;;;;0.00;0.00;;;;;18.20;99849.00;;;;5088307;28;20093;-74
2021/11/28 04:53:19;;;;;;;0.00;0.00;;;;;18.30;99844.00;;;;5088840;28;20078;-75
2021/11/28 04:55:49;;;;;;;0.00;0.00;;;;;18.30;99844.00;;;;5088375;28;20044;-75
2021/11/28 04:58:19;;;;;;;0.00;0.00;;;;;18.30;99837.00;;;;5089956;28;20142;-75
2021/11/28 05:00:48;;;;;;;0.00;0.00;;;;;18.20;99826.00;;;;5091447;28;20054;-74
2021/11/28 05:03:17;;;;;;;0.00;0.00;;;;;18.20;99838.00;;;;5090491;28;20048;-74
2021/11/28 05:06:05;;;;;;;0.00;0.00;;;;;18.10;99856.00;;;;5109046;28;20470;-74
2021/11/28 05:09:11;;;;;;;0.00;0.00;;;;;18.10;99827.00;;;;5006914;28;20145;-74
2021/11/28 05:11:42;;;;;;;0.00;0.00;;;;;18.00;99830.00;;;;5090634;28;20126;-75
2021/11/28 05:14:13;;;;;;;0.00;0.00;;;;;18.00;99828.00;;;;5090484;28;20805;-75
2021/11/28 05:16:44;;;;;;;0.00;0.00;;;;;17.90;99818.00;;;;5090496;28;20532;-74
2021/11/28 05:19:19;;;;;;;0.00;0.00;;;;;17.90;99812.00;;;;5089604;28;20427;-74
2021/11/28 05:22:08;;;;;;;0.00;0.00;;;;;17.80;99834.00;;;;5090401;28;20618;-74
2021/11/28 05:24:44;;;;;;;0.00;0.00;;;;;17.80;99824.00;;;;5090127;28;20058;-74
2021/11/28 05:27:15;;;;;;;0.00;0.00;;;;;17.80;99840.00;;;;5089576;28;20058;-74
2021/11/28 05:29:46;;;;;;;0.00;0.00;;;;;17.90;99839.00;;;;5108287;28;20427;-74
2021/11/28 05:32:17;;;;;;;;;;;;;18.00;99856.00;;;;5109459;28;20471;-74
2021/11/28 05:35:06;;;;;;;0.00;0.00;;;;;18.10;99862.00;;;;5108141;28;19998;-74
2021/11/28 05:37:55;;;;;;;0.00;0.00;;;;;18.20;99857.00;;;;5108159;28;20062;-73
2021/11/28 05:40:27;;;;;;;0.00;0.00;;;;;18.20;99855.00;;;;5108767;28;20047;-74
2021/11/28 05:42:57;;;;;;;;;;;;;18.20;99841.00;;;;5090145;28;20440;-74
2021/11/28 05:45:28;;;;;;;0.00;0.00;;;;;18.30;99835.00;;;;5090182;28;19930;-74
2021/11/28 05:48:20;;;;;;;0.00;0.00;;;;;18.20;99845.00;;;;5069161;28;20073;-74
2021/11/28 05:51:13;;;;;;;0.00;0.00;;;;;18.20;99848.00;;;;5094435;28;20141;-74
2021/11/28 05:53:42;;;;;;;0.00;0.00;;;;;18.20;99851.00;;;;5108281;28;20151;-75
2021/11/28 05:56:12;;;;;;;0.00;0.00;;;;;18.30;99866.00;;;;5109254;28;20046;-75
2021/11/28 05:58:50;;;;;;;0.00;0.00;;;;;18.30;99845.00;;;;5089843;28;20055;-74
2021/11/28 06:01:20;;;;;;;0.00;0.00;;;;;18.40;99850.00;;;;5108048;28;20061;-74
2021/11/28 06:03:50;;;;;;;0.00;0.00;;;;;18.40;99859.00;;;;5090086;28;20048;-75
2021/11/28 06:06:44;;;;;;;0.00;0.00;;;;;18.40;99873.00;;;;5107565;28;20052;-75
2021/11/28 06:09:23;;;;;;;0.00;0.00;;;;;18.50;99871.00;;;;5089739;28;20044;-75
2021/11/28 06:11:53;;;;;;;0.00;0.00;;;;;18.50;99879.00;;;;5107740;28;20506;-75
2021/11/28 06:14:23;;;;;;;0.00;0.00;;;;;18.50;99879.00;;;;5089225;28;20043;-74
2021/11/28 06:17:16;;;;;;;0.00;0.00;;;;;18.60;99857.00;;;;5089985;28;20188;-75
2021/11/28 06:20:07;;;;;;;0.00;0.00;;;;;18.70;99865.00;;;;5106956;28;20250;-74
2021/11/28 06:22:56;;;;;;;0.00;0.00;;;;;18.80;99845.00;;;;5089409;28;20048;-74
2021/11/28 06:25:27;;;;;;;0.00;0.00;;;;;18.70;99821.00;;;;5088850;28;20062;-74
2021/11/28 06:28:16;;;;;;;0.00;0.00;;;;;18.70;99811.00;;;;5088926;28;20035;-74
2021/11/28 06:30:46;;;;;;;0.00;0.00;;;;;18.80;99799.00;;;;5089335;28;20047;-74
2021/11/28 06:33:16;;;;;;;0.00;0.00;;;;;18.80;99800.00;;;;5107094;28;20132;-74
2021/11/28 06:36:04;;;;;;;0.00;0.00;;;;;18.80;99812.00;;;;5107570;28;20203;-75
2021/11/28 06:38:52;;;;;;;0.00;0.00;;;;;18.80;99805.00;;;;5108133;28;20092;-74
2021/11/28 06:41:48;;;;;;;0.00;0.00;;;;;18.80;99791.00;;;;5106671;28;20055;-74
2021/11/28 06:44:20;;;;;;;0.00;0.00;;;;;18.80;99777.00;;;;5106805;28;20085;-75
2021/11/28 06:46:50;;;;;;;0.00;0.00;;;;;18.70;99765.00;;;;5089005;28;20713;-74
2021/11/28 06:49:19;;;;;;;0.00;0.00;;;;;18.60;99773.00;;;;5088405;28;20050;-74
2021/11/28 06:52:12;;;;;;;0.00;0.00;;;;;18.50;99791.00;;;;5106293;28;20764;-74
2021/11/28 06:55:08;;;;;;;0.00;0.00;;;;;18.40;99793.00;;;;5066836;28;20917;-75
2021/11/28 06:57:38;;;;;;;0.00;0.00;;;;;18.40;99774.00;;;;5088264;28;20051;-75
2021/11/28 07:00:08;;;;;;;0.00;0.00;;;;;18.30;99786.00;;;;5106176;28;20464;-75
2021/11/28 07:02:37;;;;;;;0.00;0.00;;;;;18.20;99788.00;;;;5088631;28;20035;-75
2021/11/28 07:05:25;;;;;;;0.00;0.00;;;;;18.20;99770.00;;;;5105796;28;20121;-75
2021/11/28 07:07:55;;;;;;;0.00;0.00;;;;;18.10;99759.00;;;;5088235;28;20063;-75
2021/11/28 07:10:24;;;;;;;0.00;0.00;;;;;18.10;99770.00;;;;5087962;28;20055;-75
2021/11/28 07:13:03;;;;;;;0.00;0.00;;;;;18.00;99776.00;;;;5088016;28;20051;-75
2021/11/28 07:15:32;;;;;;;0.00;0.00;;;;;18.00;99784.00;;;;5088489;28;20044;-74
2021/11/28 07:18:03;;;;;;;0.00;0.00;;;;;17.90;99779.00;;;;5087971;28;20139;-74
2021/11/28 07:21:11;;;;;;;0.00;0.00;;;;;17.90;99758.00;;;;5023228;28;20861;-74
2021/11/28 07:23:49;;;;;;;0.00;0.00;;;;;17.90;99764.00;;;;5022961;28;20127;-74
2021/11/28 07:26:19;;;;;;;0.00;0.00;;;;;17.90;99769.00;;;;5069685;28;20040;-74
2021/11/28 07:28:49;;;;;;;0.00;0.00;;;;;17.80;99740.00;;;;5088579;28;20141;-74
2021/11/28 07:31:21;;;;;;;0.00;0.00;;;;;17.80;99759.00;;;;5087697;28;20055;-74
2021/11/28 07:34:04;;;;;;;0.00;0.00;;;;;17.70;99761.00;;;;5106316;28;20518;-74
2021/11/28 07:36:34;;;;;;;0.00;0.00;;;;;17.70;99759.00;;;;5105629;28;20048;-75
2021/11/28 07:39:08;;;;;;;0.00;0.00;;;;;17.80;99739.00;;;;5088775;28;20407;-75
2021/11/28 07:41:40;;;;;;;0.00;0.00;;;;;17.90;99746.00;;;;5087794;28;20074;-75
2021/11/28 07:44:39;;;;;;;0.00;0.00;;;;;17.80;99727.00;;;;5088488;28;20162;-75
2021/11/28 07:47:35;;;;;;;0.00;0.00;;;;;17.80;99729.00;;;;5106783;28;20587;-75
2021/11/28 07:50:23;;;;;;;0.00;0.00;;;;;17.80;99734.00;;;;5088310;28;20047;-74
2021/11/28 07:52:54;;;;;;;0.00;0.00;;;;;17.70;99739.00;;;;5087626;28;20138;-74
2021/11/28 07:55:27;;;;;;;0.00;0.00;;;;;17.60;99763.00;;;;5087892;28;20047;-75
2021/11/28 07:57:58;;;;;;;0.00;0.00;;;;;17.70;99762.00;;;;5106157;28;20144;-74
2021/11/28 08:00:51;;;;;;;0.00;0.00;;;;;17.70;99764.00;;;;5094485;28;20066;-74
2021/11/28 08:03:29;;;;;;;0.00;0.00;;;;;17.60;99759.00;;;;5088510;28;20047;-74
2021/11/28 08:06:18;;;;;;;0.00;0.00;;;;;17.60;99742.00;;;;5108279;28;20524;-74
2021/11/28 08:08:54;;;;;;;0.00;0.00;;;;;17.50;99731.00;;;;5109926;28;20045;-74
2021/11/28 08:11:32;;;;;;;0.00;0.00;;;;;17.50;99752.00;;;;5091373;28;20048;-74
2021/11/28 08:14:02;;;;;;;0.00;0.00;;;;;17.40;99788.00;;;;5109458;28;20104;-74
2021/11/28 08:16:31;;;;;;;0.00;0.00;;;;;17.40;99795.00;;;;5091159;28;20035;-74
2021/11/28 08:19:01;;;;;;;0.00;0.00;;;;;17.50;99817.00;;;;5109561;28;20058;-75
2021/11/28 08:21:31;;;;;;;0.00;0.00;;;;;17.40;99827.00;;;;5109601;28;20040;-75
2021/11/28 08:24:05;;;;;;;0.00;0.00;;;;;17.50;99801.00;;;;5109594;28;20089;-75
2021/11/28 08:26:36;;;;;;;0.00;0.00;;;;;17.50;99803.00;;;;5106984;28;20044;-74
2021/11/28 08:29:06;;;;;;;;;;;;;17.60;99805.00;;;;5108487;28;20042;-75
2021/11/28 08:31:40;;;;;;;0.00;0.00;;;;;17.60;99806.00;;;;5090834;28;19924;-75
2021/11/28 08:34:22;;;;;;;0.00;0.00;;;;;17.60;99804.00;;;;5110013;28;20059;-74
2021/11/28 08:37:12;;;;;;;0.00;0.00;;;;;17.80;99826.00;;;;5107816;28;20055;-75
2021/11/28 08:39:43;;;;;;;0.00;0.00;;;;;17.90;99826.00;;;;5109423;28;20075;-75
2021/11/28 08:42:13;;;;;;;0.00;0.00;;;;;18.00;99832.00;;;;5109831;28;20126;-75
2021/11/28 08:44:42;;;;;;;0.00;0.00;;;;;18.10;99827.00;;;;5109854;28;20035;-75
2021/11/28 08:47:12;;;;;;;0.00;0.00;;;;;18.20;99820.00;;;;5109164;28;20046;-75
2021/11/28 08:49:45;;;;;;;0.00;0.00;;;;;18.30;99819.00;;;;5090232;28;20134;-75
2021/11/28 08:52:15;;;;;;;0.00;0.00;;;;;18.50;99829.00;;;;5109569;28;20043;-75
2021/11/28 08:54:44;;;;;;;0.00;0.00;;;;;18.60;99830.00;;;;5109098;28;20052;-75
2021/11/28 08:57:14;;;;;;;0.00;0.00;;;;;18.70;99821.00;;;;5109544;28;20043;-75
2021/11/28 08:59:44;;;;;;;0.00;0.00;;;;;18.80;99843.00;;;;5108438;28;20052;-74
2021/11/28 09:02:16;;;;;;;0.00;0.00;;;;;18.90;99826.00;;;;5107943;28;20042;-75
2021/11/28 09:04:46;;;;;;;0.00;0.00;;;;;19.00;99836.00;;;;5109296;28;20563;-75
2021/11/28 09:07:15;;;;;;;0.00;0.00;;;;;19.10;99843.00;;;;5109136;28;20047;-74
2021/11/28 09:09:45;;;;;;;0.00;0.00;;;;;19.20;99849.00;;;;5108226;28;20047;-75
2021/11/28 09:12:14;;;;;;;0.00;0.00;;;;;19.20;99843.00;;;;5088766;28;20036;-75
2021/11/28 09:14:44;;;;;;;0.00;0.00;;;;;19.30;99869.00;;;;5106937;28;20044;-75
2021/11/28 09:17:13;;;;;;;0.00;0.00;;;;;19.40;99863.00;;;;5105757;28;20085;-75
2021/11/28 09:19:57;;;;;;;0.00;0.00;;;;;19.70;99858.00;;;;5109193;28;20130;-75
2021/11/28 09:25:09;;;;;;;0.10;0.10;;;;;19.90;99878.00;;;;5105267;28;20092;-75
2021/11/28 09:27:44;;;;;;;0.00;0.00;;;;;19.90;99873.00;;;;5107504;28;20058;-75
2021/11/28 09:30:16;;;;;;;0.00;0.00;;;;;20.10;99878.00;;;;5088964;28;20257;-75
2021/11/28 09:32:47;;;;;;;0.00;0.00;;;;;20.20;99864.00;;;;5107309;28;20710;-75
2021/11/28 09:35:16;;;;;;;0.20;0.15;;;;;20.30;99879.00;;;;5107463;28;20051;-75
2021/11/28 09:37:46;;;;;;;0.00;0.00;;;;;20.40;99875.00;;;;5107339;28;20039;-74
2021/11/28 09:40:16;;;;;;;0.08;0.08;;;;;20.40;99909.00;;;;5107920;28;20039;-75
2021/11/28 09:42:55;;;;;;;0.00;0.00;;;;;20.50;99907.00;;;;5108663;28;20130;-75
2021/11/28 09:45:27;;;;;;;0.00;0.00;;;;;20.50;99918.00;;;;5107337;28;20558;-75
2021/11/28 09:47:57;;;;;;;0.00;0.00;;;;;20.60;99886.00;;;;5107225;28;20046;-75
2021/11/28 09:50:27;;;;;;;1.83;0.22;;;;;20.80;99890.00;;;;5107706;28;20075;-75
2021/11/28 09:52:57;;;;;;;0.00;0.00;;;;;21.10;99871.00;;;;5107768;28;20062;-75
2021/11/28 09:55:27;;;;;;;5.33;0.10;;;;;21.50;99860.00;;;;5107237;28;20502;-75
2021/11/28 09:57:57;;;;;;;0.38;0.30;;;;;21.70;99862.00;;;;5107525;28;20047;-75
2021/11/28 10:00:27;;;;;;;0.00;0.00;;;;;21.90;99880.00;;;;5106820;28;20050;-75
2021/11/28 10:02:57;;;;;;;0.08;0.08;;;;;22.20;99855.00;;;;5109018;28;20043;-75
2021/11/28 10:05:26;;;;;;;0.13;0.13;;;;;22.30;99868.00;;;;5107783;28;20498;-74
2021/11/28 10:07:58;;;;;;;0.25;0.00;;;;;22.30;99879.00;;;;5107553;28;20525;-75
2021/11/28 10:10:27;;;;;;;0.00;0.00;;;;;22.00;99886.00;;;;5107604;28;20130;-75
2021/11/28 10:12:57;;;;;;;0.00;0.00;;;;;21.50;99885.00;;;;5107652;28;20571;-75
2021/11/28 10:15:29;;;;;;;0.00;0.00;;;;;21.00;99916.00;;;;5107779;28;20104;-75
2021/11/28 10:18:00;;;;;;;0.00;0.00;;;;;20.80;99923.00;;;;5107258;28;20074;-75
2021/11/28 10:20:36;;;;;;;0.00;0.00;;;;;20.70;99942.00;;;;5089721;28;20627;-75
2021/11/28 10:23:06;;;;;;;0.00;0.00;;;;;20.80;99940.00;;;;5107046;28;20040;-75
2021/11/28 10:25:35;;;;;;;0.00;0.00;;;;;21.30;99918.00;;;;5107247;28;20490;-75
2021/11/28 10:28:10;;;;;;;0.00;0.00;;;;;21.80;99910.00;;;;5106684;28;20043;-75
2021/11/28 10:30:43;;;;;;;0.00;0.00;;;;;22.20;99877.00;;;;5106595;28;20518;-75
2021/11/28 10:33:21;;;;;;;0.00;0.00;;;;;22.50;99882.00;;;;5106835;28;20459;-75
2021/11/28 10:36:10;;;;;;;0.00;0.00;;;;;23.00;99858.00;;;;5106275;28;20521;-75
2021/11/28 10:38:44;;;;;;;0.00;0.00;;;;;23.00;99883.00;;;;5106785;28;20047;-75
2021/11/28 10:41:28;;;;;;;0.00;0.00;;;;;22.80;99904.00;;;;5107278;28;20044;-75
2021/11/28 10:43:58;;;;;;;0.13;0.13;;;;;23.60;99838.00;;;;5106398;28;20036;-75
2021/11/28 10:46:31;;;;;;;0.00;0.00;;;;;26.00;99819.00;;;;5106898;28;20039;-75
2021/11/28 10:49:08;;;;;;;0.00;0.00;;;;;28.90;99812.00;;;;5107445;28;20043;-75
2021/11/28 10:51:43;;;;;;;0.00;0.00;;;;;29.30;99826.00;;;;5106320;28;20051;-76
2021/11/28 10:54:34;;;;;;;0.00;0.00;;;;;26.50;99895.00;;;;5107299;28;20048;-75
2021/11/28 10:57:17;;;;;;;0.00;0.00;;;;;27.60;99704.00;;;;5106568;28;20043;-75
2021/11/28 10:59:56;;;;;;;0.00;0.00;;;;;31.80;99695.00;;;;5106320;28;20515;-76
2021/11/28 11:02:32;;;;;;;0.00;0.00;;;;;32.10;99733.00;;;;5106805;28;20096;-75
2021/11/28 11:05:07;;;;;;;0.38;0.17;;;;;27.60;99904.00;;;;5105416;28;20036;-75
2021/11/28 11:07:53;;;;;;;0.00;0.00;;;;;24.80;99892.00;;;;5106092;28;20051;-75
2021/11/28 11:10:24;;;;;;;0.13;0.13;;;;;23.90;99928.00;;;;5107166;28;20075;-75
2021/11/28 11:12:55;;;;;;;0.13;0.10;;;;;23.60;99943.00;;;;5105081;28;20063;-75
2021/11/28 11:15:45;;;;;;;0.00;0.00;;;;;23.80;99905.00;;;;5105275;28;20051;-75
2021/11/28 11:18:20;;;;;;;0.00;0.00;;;;;27.00;99933.00;;;;5087308;28;20048;-75
2021/11/28 11:20:55;;;;;;;0.00;0.00;;;;;24.50;99921.00;;;;5106666;28;20044;-76
2021/11/28 11:23:35;;;;;;;0.17;0.10;;;;;23.70;99916.00;;;;5106202;28;20047;-75
2021/11/28 11:26:17;;;;;;;0.00;0.00;;;;;23.10;99938.00;;;;5105767;28;21178;-75
2021/11/28 11:29:17;;;;;;;0.00;0.00;;;;;23.40;99861.00;;;;5105177;28;20122;-74
2021/11/28 11:31:55;;;;;;;0.00;0.00;;;;;25.90;99802.00;;;;5086908;28;20093;-75
2021/11/28 11:34:27;;;;;;;0.00;0.00;;;;;28.40;99705.00;;;;5105909;28;20060;-75
2021/11/28 11:37:01;;;;;;;0.70;0.43;;;;;28.80;99699.00;;;;5106348;28;20035;-75
2021/11/28 11:39:33;;;;;;;0.00;0.00;;;;;28.60;99701.00;;;;5106938;28;20043;-76
2021/11/28 11:42:09;;;;;;;0.10;0.10;;;;;28.40;99776.00;;;;5109820;28;20112;-75
2021/11/28 11:44:38;;;;;;;0.00;0.00;;;;;26.10;99806.00;;;;5110094;28;20069;-75
2021/11/28 11:47:07;;;;;;;0.00;0.00;;;;;27.10;99758.00;;;;5110560;28;20047;-75
2021/11/28 11:49:42;;;;;;;0.00;0.00;;;;;27.60;99792.00;;;;5073437;28;20047;-75
2021/11/28 11:52:13;;;;;;;0.00;0.00;;;;;27.40;99830.00;;;;5109900;28;20514;-74
2021/11/28 11:54:49;;;;;;;0.05;0.05;;;;;26.00;99857.00;;;;5091463;28;20597;-73
2021/11/28 11:57:34;;;;;;;0.20;0.17;;;;;26.50;99826.00;;;;5109596;28;20116;-75
2021/11/28 12:00:09;;;;;;;0.00;0.00;;;;;26.80;99813.00;;;;5108660;28;20040;-75
2021/11/28 12:02:48;;;;;;;0.00;0.00;;;;;26.90;99801.00;;;;5110552;28;20044;-75
2021/11/28 12:05:25;;;;;;;0.00;0.00;;;;;27.00;99800.00;;;;5090895;28;20467;-75
2021/11/28 12:08:00;;;;;;;0.00;0.00;;;;;27.60;99786.00;;;;5091422;28;20938;-75
2021/11/28 12:10:43;;;;;;;0.00;0.00;;;;;27.90;99796.00;;;;5110068;28;20051;-75
2021/11/28 12:13:25;;;;;;;0.60;0.38;;;;;28.10;99787.00;;;;5088978;28;20159;-75
2021/11/28 12:16:14;;;;;;;0.00;0.00;;;;;28.10;99768.00;;;;5110044;28;20468;-75
2021/11/28 12:18:45;;;;;;;0.55;0.40;;;;;27.30;99843.00;;;;5108822;28;20058;-75
2021/11/28 12:21:18;;;;;;;0.00;0.00;;;;;26.90;99762.00;;;;5109635;28;20050;-74
2021/11/28 12:24:08;;;;;;;0.10;0.10;;;;;27.40;99765.00;;;;5108512;28;20044;-74
2021/11/28 12:26:39;;;;;;;0.03;0.03;;;;;27.60;99753.00;;;;5108738;28;20043;-75
2021/11/28 12:29:15;;;;;;;0.22;0.20;;;;;27.40;99747.00;;;;5109349;28;20135;-75
2021/11/28 12:31:47;;;;;;;0.00;0.00;;;;;27.10;99800.00;;;;5108290;28;20035;-74
2021/11/28 12:34:40;;;;;;;0.00;0.00;;;;;27.10;99758.00;;;;5109886;28;20062;-75
2021/11/28 12:37:28;;;;;;;0.95;0.30;;;;;27.50;99749.00;;;;5110789;28;20090;-75
2021/11/28 12:40:20;;;;;;;0.00;0.00;;;;;27.80;99827.00;;;;5109665;28;20087;-74
2021/11/28 12:42:50;;;;;;;0.00;0.00;;;;;27.40;99799.00;;;;5109470;28;20065;-75
2021/11/28 12:45:35;;;;;;;0.00;0.00;;;;;28.50;99780.00;;;;5109951;28;20055;-76
2021/11/28 12:48:17;;;;;;;0.00;0.00;;;;;28.00;99762.00;;;;5109321;28;20124;-75
2021/11/28 12:50:50;;;;;;;0.00;0.00;;;;;28.60;99757.00;;;;5107970;28;20089;-75
2021/11/28 12:53:35;;;;;;;0.00;0.00;;;;;28.20;99746.00;;;;5090082;28;20051;-75
2021/11/28 12:56:26;;;;;;;0.00;0.00;;;;;28.60;99756.00;;;;5109199;28;20039;-76
2021/11/28 12:59:08;;;;;;;;;;;;;28.30;99749.00;;;;5109300;28;20774;-75
2021/11/28 13:01:58;;;;;;;0.00;0.00;;;;;29.10;99759.00;;;;5106625;28;20485;-75
2021/11/28 13:04:39;;;;;;;0.00;0.00;;;;;29.00;99754.00;;;;5107715;28;20548;-75